sensor_id;sensor_type;location;lat;lon;timestamp;pressure;altitude;pressure_sealevel;temperature;humidity
60417;BME280;46263;44.726;10.396;2022-11-20T00:01:12;99810.66;;;14.44;66.54
60417;BME280;46263;44.726;10.396;2022-11-20T00:03:39;99815.91;;;14.48;66.76
60417;BME280;46263;44.726;10.396;2022-11-20T00:06:07;99813.28;;;14.50;67.34
60417;BME280;46263;44.726;10.396;2022-11-20T00:08:33;99812.91;;;14.53;67.95
60417;BME280;46263;44.726;10.396;2022-11-20T00:11:05;99815.00;;;14.53;67.17
60417;BME280;46263;44.726;10.396;2022-11-20T00:13:32;99822.28;;;14.56;67.48
60417;BME280;46263;44.726;10.396;2022-11-20T00:15:59;99825.47;;;14.60;67.28
60417;BME280;46263;44.726;10.396;2022-11-20T00:18:25;99826.03;;;14.58;67.84
60417;BME280;46263;44.726;10.396;2022-11-20T00:20:51;99823.06;;;14.56;67.49
60417;BME280;46263;44.726;10.396;2022-11-20T00:23:16;99824.16;;;14.53;66.76
60417;BME280;46263;44.726;10.396;2022-11-20T00:25:42;99824.91;;;14.54;67.23
60417;BME280;46263;44.726;10.396;2022-11-20T00:28:07;99824.75;;;14.52;66.87
60417;BME280;46263;44.726;10.396;2022-11-20T00:30:33;99820.63;;;14.53;66.44
60417;BME280;46263;44.726;10.396;2022-11-20T00:32:58;99827.91;;;14.56;65.90
60417;BME280;46263;44.726;10.396;2022-11-20T00:35:23;99829.44;;;14.49;65.72
60417;BME280;46263;44.726;10.396;2022-11-20T00:37:49;99835.41;;;14.53;65.71
60417;BME280;46263;44.726;10.396;2022-11-20T00:40:14;99835.22;;;14.51;66.24
60417;BME280;46263;44.726;10.396;2022-11-20T00:42:40;99839.72;;;14.54;65.97
60417;BME280;46263;44.726;10.396;2022-11-20T00:45:05;99837.28;;;14.51;65.89
60417;BME280;46263;44.726;10.396;2022-11-20T00:47:32;99841.03;;;14.53;66.30
60417;BME280;46263;44.726;10.396;2022-11-20T00:49:57;99835.78;;;14.50;66.41
60417;BME280;46263;44.726;10.396;2022-11-20T00:52:23;99839.16;;;14.56;66.20
60417;BME280;46263;44.726;10.396;2022-11-20T00:54:48;99841.78;;;14.54;65.61
60417;BME280;46263;44.726;10.396;2022-11-20T00:57:14;99840.47;;;14.55;66.26
60417;BME280;46263;44.726;10.396;2022-11-20T00:59:39;99839.16;;;14.56;65.71
60417;BME280;46263;44.726;10.396;2022-11-20T01:02:04;99829.22;;;14.62;66.11
60417;BME280;46263;44.726;10.396;2022-11-20T01:04:30;99835.41;;;14.61;66.59
60417;BME280;46263;44.726;10.396;2022-11-20T01:06:55;99833.91;;;14.60;66.95
60417;BME280;46263;44.726;10.396;2022-11-20T01:09:21;99834.66;;;14.60;66.55
60417;BME280;46263;44.726;10.396;2022-11-20T01:11:46;99832.41;;;14.59;67.14
60417;BME280;46263;44.726;10.396;2022-11-20T01:14:17;99833.00;;;14.57;66.73
60417;BME280;46263;44.726;10.396;2022-11-20T01:16:45;99823.44;;;14.53;66.65
60417;BME280;46263;44.726;10.396;2022-11-20T01:19:13;99833.53;;;14.56;66.46
60417;BME280;46263;44.726;10.396;2022-11-20T01:21:41;99841.78;;;14.54;66.45
60417;BME280;46263;44.726;10.396;2022-11-20T01:24:11;99836.38;;;14.48;66.82
60417;BME280;46263;44.726;10.396;2022-11-20T01:26:39;99846.47;;;14.44;66.25
60417;BME280;46263;44.726;10.396;2022-11-20T01:29:06;99845.34;;;14.39;66.58
60417;BME280;46263;44.726;10.396;2022-11-20T01:31:37;99844.59;;;14.39;66.75
60417;BME280;46263;44.726;10.396;2022-11-20T01:34:08;99844.59;;;14.32;66.95
60417;BME280;46263;44.726;10.396;2022-11-20T01:36:35;99845.16;;;14.30;66.59
60417;BME280;46263;44.726;10.396;2022-11-20T01:39:05;99847.97;;;14.30;66.73
60417;BME280;46263;44.726;10.396;2022-11-20T01:41:32;99847.22;;;14.30;67.10
60417;BME280;46263;44.726;10.396;2022-11-20T01:44:19;99840.66;;;14.27;66.46
60417;BME280;46263;44.726;10.396;2022-11-20T01:46:57;99856.78;;;14.19;67.30
60417;BME280;46263;44.726;10.396;2022-11-20T01:52:02;99868.03;;;14.19;67.46
60417;BME280;46263;44.726;10.396;2022-11-20T01:54:42;99859.38;;;14.17;66.69
60417;BME280;46263;44.726;10.396;2022-11-20T01:57:10;99862.41;;;14.19;66.41
60417;BME280;46263;44.726;10.396;2022-11-20T01:59:41;99851.69;;;14.18;66.75
60417;BME280;46263;44.726;10.396;2022-11-20T02:02:08;99855.66;;;14.15;66.77
60417;BME280;46263;44.726;10.396;2022-11-20T02:04:34;99863.50;;;14.16;66.69
60417;BME280;46263;44.726;10.396;2022-11-20T02:07:02;99859.75;;;14.14;67.06
60417;BME280;46263;44.726;10.396;2022-11-20T02:09:29;99865.94;;;14.12;66.47
60417;BME280;46263;44.726;10.396;2022-11-20T02:11:54;99866.81;;;14.07;66.76
60417;BME280;46263;44.726;10.396;2022-11-20T02:14:21;99866.81;;;14.07;67.14
60417;BME280;46263;44.726;10.396;2022-11-20T02:16:48;99858.59;;;14.09;66.65
60417;BME280;46263;44.726;10.396;2022-11-20T02:19:26;99863.47;;;14.09;66.92
60417;BME280;46263;44.726;10.396;2022-11-20T02:24:22;99852.25;;;14.09;66.81
60417;BME280;46263;44.726;10.396;2022-11-20T02:27:07;99857.84;;;14.09;67.04
60417;BME280;46263;44.726;10.396;2022-11-20T02:29:38;99863.84;;;14.05;66.54
60417;BME280;46263;44.726;10.396;2022-11-20T02:32:05;99867.03;;;14.09;66.10
60417;BME280;46263;44.726;10.396;2022-11-20T02:34:31;99854.81;;;13.99;66.68
60417;BME280;46263;44.726;10.396;2022-11-20T02:36:57;99860.44;;;13.99;66.75
60417;BME280;46263;44.726;10.396;2022-11-20T02:39:25;99862.88;;;13.95;66.90
60417;BME280;46263;44.726;10.396;2022-11-20T02:41:53;99865.69;;;13.95;66.54
60417;BME280;46263;44.726;10.396;2022-11-20T02:44:19;99861.19;;;13.92;66.61
60417;BME280;46263;44.726;10.396;2022-11-20T02:46:45;99861.34;;;13.87;66.84
60417;BME280;46263;44.726;10.396;2022-11-20T02:49:11;99865.28;;;13.84;66.17
60417;BME280;46263;44.726;10.396;2022-11-20T02:51:36;99860.03;;;13.80;66.95
60417;BME280;46263;44.726;10.396;2022-11-20T02:54:02;99856.63;;;13.74;66.48
60417;BME280;46263;44.726;10.396;2022-11-20T02:56:28;99859.22;;;13.65;66.60
60417;BME280;46263;44.726;10.396;2022-11-20T02:58:54;99858.84;;;13.61;67.01
60417;BME280;46263;44.726;10.396;2022-11-20T03:01:19;99859.91;;;13.51;66.58
60417;BME280;46263;44.726;10.396;2022-11-20T03:03:45;99860.06;;;13.45;67.30
60417;BME280;46263;44.726;10.396;2022-11-20T03:06:10;99858.59;;;13.44;67.30
60417;BME280;46263;44.726;10.396;2022-11-20T03:08:36;99859.66;;;13.34;67.83
60417;BME280;46263;44.726;10.396;2022-11-20T03:11:06;99858.34;;;13.35;67.85
60417;BME280;46263;44.726;10.396;2022-11-20T03:13:33;99860.00;;;13.30;68.12
60417;BME280;46263;44.726;10.396;2022-11-20T03:16:08;99858.28;;;13.20;67.90
60417;BME280;46263;44.726;10.396;2022-11-20T03:18:34;99862.78;;;13.23;67.80
60417;BME280;46263;44.726;10.396;2022-11-20T03:21:00;99858.78;;;13.11;68.03
60417;BME280;46263;44.726;10.396;2022-11-20T03:23:25;99858.41;;;13.07;67.88
60417;BME280;46263;44.726;10.396;2022-11-20T03:25:51;99863.22;;;12.99;68.50
60417;BME280;46263;44.726;10.396;2022-11-20T03:28:16;99866.38;;;12.95;68.02
60417;BME280;46263;44.726;10.396;2022-11-20T03:30:41;99868.22;;;12.93;67.88
60417;BME280;46263;44.726;10.396;2022-11-20T03:33:07;99871.03;;;12.93;68.22
60417;BME280;46263;44.726;10.396;2022-11-20T03:35:32;99869.72;;;12.94;68.32
60417;BME280;46263;44.726;10.396;2022-11-20T03:37:58;99868.22;;;12.93;68.31
60417;BME280;46263;44.726;10.396;2022-11-20T03:40:23;99870.13;;;12.98;67.92
60417;BME280;46263;44.726;10.396;2022-11-20T03:42:48;99872.00;;;12.95;67.63
60417;BME280;46263;44.726;10.396;2022-11-20T03:45:16;99859.63;;;12.91;68.26
60417;BME280;46263;44.726;10.396;2022-11-20T03:47:42;99869.94;;;12.96;68.20
60417;BME280;46263;44.726;10.396;2022-11-20T03:50:10;99869.53;;;12.92;67.94
60417;BME280;46263;44.726;10.396;2022-11-20T03:52:35;99874.94;;;12.90;68.06
60417;BME280;46263;44.726;10.396;2022-11-20T03:55:01;99873.66;;;12.91;67.88
60417;BME280;46263;44.726;10.396;2022-11-20T03:57:27;99878.50;;;12.90;67.62
60417;BME280;46263;44.726;10.396;2022-11-20T03:59:52;99875.06;;;12.84;68.05
60417;BME280;46263;44.726;10.396;2022-11-20T04:02:18;99886.22;;;12.77;67.51
60417;BME280;46263;44.726;10.396;2022-11-20T04:04:43;99880.41;;;12.75;67.68
60417;BME280;46263;44.726;10.396;2022-11-20T04:07:09;99888.63;;;12.73;68.29
60417;BME280;46263;44.726;10.396;2022-11-20T04:09:34;99898.75;;;12.76;67.66
60417;BME280;46263;44.726;10.396;2022-11-20T04:11:59;99894.09;;;12.78;67.79
60417;BME280;46263;44.726;10.396;2022-11-20T04:14:25;99897.63;;;12.79;68.08
60417;BME280;46263;44.726;10.396;2022-11-20T04:16:50;99902.50;;;12.78;68.03
60417;BME280;46263;44.726;10.396;2022-11-20T04:19:16;99902.84;;;12.75;67.97
60417;BME280;46263;44.726;10.396;2022-11-20T04:21:42;99900.22;;;12.77;68.10
60417;BME280;46263;44.726;10.396;2022-11-20T04:24:09;99910.16;;;12.78;67.62
60417;BME280;46263;44.726;10.396;2022-11-20T04:26:35;99909.13;;;12.68;67.55
60417;BME280;46263;44.726;10.396;2022-11-20T04:29:01;99907.22;;;12.63;68.10
60417;BME280;46263;44.726;10.396;2022-11-20T04:31:29;99905.78;;;12.70;68.36
60417;BME280;46263;44.726;10.396;2022-11-20T04:33:55;99899.25;;;12.67;67.96
60417;BME280;46263;44.726;10.396;2022-11-20T04:36:25;99902.03;;;12.67;68.44
60417;BME280;46263;44.726;10.396;2022-11-20T04:38:52;99896.63;;;12.69;68.28
60417;BME280;46263;44.726;10.396;2022-11-20T04:41:19;99886.16;;;12.70;67.71
60417;BME280;46263;44.726;10.396;2022-11-20T04:43:53;99893.47;;;12.72;67.08
60417;BME280;46263;44.726;10.396;2022-11-20T04:46:23;99892.50;;;12.70;67.18
60417;BME280;46263;44.726;10.396;2022-11-20T04:48:49;99896.34;;;12.60;68.04
60417;BME280;46263;44.726;10.396;2022-11-20T04:51:14;99891.44;;;12.12;67.73
60417;BME280;46263;44.726;10.396;2022-11-20T04:53:40;99898.47;;;12.05;68.32
60417;BME280;46263;44.726;10.396;2022-11-20T04:56:07;99902.72;;;12.19;67.99
60417;BME280;46263;44.726;10.396;2022-11-20T04:58:34;99904.63;;;12.24;67.45
60417;BME280;46263;44.726;10.396;2022-11-20T05:01:22;99907.66;;;12.26;66.89
60417;BME280;46263;44.726;10.396;2022-11-20T05:03:48;99908.06;;;12.30;67.19
60417;BME280;46263;44.726;10.396;2022-11-20T05:06:16;99914.22;;;12.29;67.33
60417;BME280;46263;44.726;10.396;2022-11-20T05:08:42;99910.84;;;12.30;67.22
60417;BME280;46263;44.726;10.396;2022-11-20T05:11:13;99909.34;;;12.29;67.65
60417;BME280;46263;44.726;10.396;2022-11-20T05:13:39;99911.75;;;12.25;67.14
60417;BME280;46263;44.726;10.396;2022-11-20T05:16:11;99908.53;;;12.21;67.23
60417;BME280;46263;44.726;10.396;2022-11-20T05:18:37;99921.03;;;12.20;66.64
60417;BME280;46263;44.726;10.396;2022-11-20T05:21:03;99920.84;;;12.18;66.96
60417;BME280;46263;44.726;10.396;2022-11-20T05:23:30;99924.81;;;12.23;66.67
60417;BME280;46263;44.726;10.396;2022-11-20T05:25:57;99919.72;;;12.21;66.98
60417;BME280;46263;44.726;10.396;2022-11-20T05:28:24;99921.50;;;12.11;67.16
60417;BME280;46263;44.726;10.396;2022-11-20T05:30:50;99927.13;;;12.11;66.75
60417;BME280;46263;44.726;10.396;2022-11-20T05:33:16;99928.81;;;12.14;67.07
60417;BME280;46263;44.726;10.396;2022-11-20T05:35:41;99937.00;;;12.12;66.99
60417;BME280;46263;44.726;10.396;2022-11-20T05:38:07;99943.69;;;12.09;66.28
60417;BME280;46263;44.726;10.396;2022-11-20T05:40:32;99938.97;;;12.04;66.82
60417;BME280;46263;44.726;10.396;2022-11-20T05:42:59;99946.06;;;12.05;66.37
60417;BME280;46263;44.726;10.396;2022-11-20T05:45:24;99954.75;;;11.94;66.32
60417;BME280;46263;44.726;10.396;2022-11-20T05:47:50;99951.72;;;11.93;66.57
60417;BME280;46263;44.726;10.396;2022-11-20T05:50:15;99958.41;;;11.90;66.73
60417;BME280;46263;44.726;10.396;2022-11-20T05:52:41;99959.16;;;11.90;67.07
60417;BME280;46263;44.726;10.396;2022-11-20T05:55:06;99968.41;;;11.98;66.46
60417;BME280;46263;44.726;10.396;2022-11-20T05:57:32;99963.75;;;12.00;66.53
60417;BME280;46263;44.726;10.396;2022-11-20T05:59:58;99959.66;;;12.01;66.09
60417;BME280;46263;44.726;10.396;2022-11-20T06:02:23;99965.06;;;11.99;66.09
60417;BME280;46263;44.726;10.396;2022-11-20T06:04:49;99961.41;;;11.92;66.08
60417;BME280;46263;44.726;10.396;2022-11-20T06:07:14;99967.00;;;11.92;66.32
60417;BME280;46263;44.726;10.396;2022-11-20T06:09:40;99960.97;;;11.88;66.13
60417;BME280;46263;44.726;10.396;2022-11-20T06:12:05;99948.69;;;11.91;66.81
60417;BME280;46263;44.726;10.396;2022-11-20T06:14:32;99966.91;;;11.84;66.43
60417;BME280;46263;44.726;10.396;2022-11-20T06:16:57;99966.78;;;11.90;66.19
60417;BME280;46263;44.726;10.396;2022-11-20T06:19:23;99963.59;;;11.86;66.34
60417;BME280;46263;44.726;10.396;2022-11-20T06:21:48;99960.97;;;11.88;66.58
60417;BME280;46263;44.726;10.396;2022-11-20T06:24:15;99969.94;;;11.86;66.07
60417;BME280;46263;44.726;10.396;2022-11-20T06:26:40;99977.78;;;11.88;65.92
60417;BME280;46263;44.726;10.396;2022-11-20T06:29:06;99976.94;;;11.80;66.21
60417;BME280;46263;44.726;10.396;2022-11-20T06:31:31;99982.75;;;11.82;66.21
60417;BME280;46263;44.726;10.396;2022-11-20T06:34:03;99986.09;;;11.80;66.37
60417;BME280;46263;44.726;10.396;2022-11-20T06:36:29;99991.41;;;11.71;66.41
60417;BME280;46263;44.726;10.396;2022-11-20T06:38:55;99987.28;;;11.72;65.55
60417;BME280;46263;44.726;10.396;2022-11-20T06:41:21;99988.38;;;11.69;65.80
60417;BME280;46263;44.726;10.396;2022-11-20T06:43:48;100000.88;;;11.68;65.21
60417;BME280;46263;44.726;10.396;2022-11-20T06:46:15;100000.22;;;11.62;65.55
60417;BME280;46263;44.726;10.396;2022-11-20T06:48:43;100010.22;;;11.57;65.33
60417;BME280;46263;44.726;10.396;2022-11-20T06:51:08;100016.91;;;11.54;65.73
60417;BME280;46263;44.726;10.396;2022-11-20T06:53:35;100014.66;;;11.53;66.02
60417;BME280;46263;44.726;10.396;2022-11-20T06:56:00;100020.25;;;11.53;65.90
60417;BME280;46263;44.726;10.396;2022-11-20T06:58:31;100016.97;;;11.49;65.83
60417;BME280;46263;44.726;10.396;2022-11-20T07:01:03;100030.66;;;11.52;65.85
60417;BME280;46263;44.726;10.396;2022-11-20T07:03:28;100035.53;;;11.52;66.58
60417;BME280;46263;44.726;10.396;2022-11-20T07:05:55;100042.84;;;11.55;66.36
60417;BME280;46263;44.726;10.396;2022-11-20T07:08:21;100040.47;;;11.59;65.88
60417;BME280;46263;44.726;10.396;2022-11-20T07:10:47;100048.44;;;11.55;66.35
60417;BME280;46263;44.726;10.396;2022-11-20T07:13:12;100050.16;;;11.58;66.41
60417;BME280;46263;44.726;10.396;2022-11-20T07:15:37;100049.09;;;11.61;66.06
60417;BME280;46263;44.726;10.396;2022-11-20T07:18:03;100047.13;;;11.56;66.90
60417;BME280;46263;44.726;10.396;2022-11-20T07:20:28;100044.34;;;11.56;67.02
60417;BME280;46263;44.726;10.396;2022-11-20T07:22:55;100055.00;;;11.57;67.11
60417;BME280;46263;44.726;10.396;2022-11-20T07:25:21;100064.47;;;11.54;67.51
60417;BME280;46263;44.726;10.396;2022-11-20T07:27:47;100069.75;;;11.58;67.59
60417;BME280;46263;44.726;10.396;2022-11-20T07:30:13;100068.91;;;11.63;67.54
60417;BME280;46263;44.726;10.396;2022-11-20T07:32:39;100070.06;;;11.67;67.63
60417;BME280;46263;44.726;10.396;2022-11-20T07:35:04;100066.09;;;11.76;67.58
60417;BME280;46263;44.726;10.396;2022-11-20T07:37:30;100071.06;;;11.83;67.37
60417;BME280;46263;44.726;10.396;2022-11-20T07:39:55;100077.28;;;11.89;67.15
60417;BME280;46263;44.726;10.396;2022-11-20T07:42:21;100084.28;;;11.95;67.79
60417;BME280;46263;44.726;10.396;2022-11-20T07:44:46;100088.06;;;11.97;66.94
60417;BME280;46263;44.726;10.396;2022-11-20T07:47:12;100087.41;;;12.04;67.25
60417;BME280;46263;44.726;10.396;2022-11-20T07:49:37;100089.88;;;12.08;66.98
60417;BME280;46263;44.726;10.396;2022-11-20T07:52:02;100093.00;;;12.17;67.29
60417;BME280;46263;44.726;10.396;2022-11-20T07:54:28;100098.84;;;12.19;67.19
60417;BME280;46263;44.726;10.396;2022-11-20T07:56:53;100100.75;;;12.24;67.00
60417;BME280;46263;44.726;10.396;2022-11-20T07:59:19;100100.75;;;12.24;66.70
60417;BME280;46263;44.726;10.396;2022-11-20T08:01:44;100101.06;;;12.34;66.53
60417;BME280;46263;44.726;10.396;2022-11-20T08:04:10;100101.97;;;12.03;66.70
60417;BME280;46263;44.726;10.396;2022-11-20T08:06:36;100101.41;;;12.17;66.60
60417;BME280;46263;44.726;10.396;2022-11-20T08:09:01;100106.06;;;12.02;67.54
60417;BME280;46263;44.726;10.396;2022-11-20T08:11:27;100110.66;;;12.12;66.99
60417;BME280;46263;44.726;10.396;2022-11-20T08:14:11;100117.91;;;11.95;67.77
60417;BME280;46263;44.726;10.396;2022-11-20T08:16:37;100119.41;;;11.96;67.89
60417;BME280;46263;44.726;10.396;2022-11-20T08:19:02;100111.63;;;11.76;68.34
60417;BME280;46263;44.726;10.396;2022-11-20T08:21:29;100119.31;;;11.44;69.64
60417;BME280;46263;44.726;10.396;2022-11-20T08:23:54;100125.59;;;11.50;69.51
60417;BME280;46263;44.726;10.396;2022-11-20T08:26:21;100121.00;;;11.66;69.79
60417;BME280;46263;44.726;10.396;2022-11-20T08:28:47;100127.25;;;11.72;69.04
60417;BME280;46263;44.726;10.396;2022-11-20T08:31:12;100138.56;;;11.79;69.41
60417;BME280;46263;44.726;10.396;2022-11-20T08:33:37;100129.16;;;11.64;70.00
60417;BME280;46263;44.726;10.396;2022-11-20T08:36:03;100130.50;;;11.89;69.39
60417;BME280;46263;44.726;10.396;2022-11-20T08:38:30;100125.97;;;11.98;68.95
60417;BME280;46263;44.726;10.396;2022-11-20T08:40:57;100128.66;;;12.17;68.27
60417;BME280;46263;44.726;10.396;2022-11-20T08:43:41;100130.94;;;12.18;68.57
60417;BME280;46263;44.726;10.396;2022-11-20T08:46:06;100136.13;;;12.27;67.70
60417;BME280;46263;44.726;10.396;2022-11-20T08:48:32;100138.16;;;12.14;68.07
60417;BME280;46263;44.726;10.396;2022-11-20T08:50:58;100140.41;;;12.15;67.80
60417;BME280;46263;44.726;10.396;2022-11-20T08:53:24;100137.16;;;12.37;67.36
60417;BME280;46263;44.726;10.396;2022-11-20T08:55:50;100143.63;;;12.32;67.55
60417;BME280;46263;44.726;10.396;2022-11-20T08:58:15;100147.84;;;12.26;67.51
60417;BME280;46263;44.726;10.396;2022-11-20T09:00:41;100148.59;;;12.26;67.80
60417;BME280;46263;44.726;10.396;2022-11-20T09:03:06;100141.38;;;12.18;67.65
60417;BME280;46263;44.726;10.396;2022-11-20T09:05:32;100132.66;;;12.21;67.67
60417;BME280;46263;44.726;10.396;2022-11-20T09:07:58;100131.16;;;12.07;68.44
60417;BME280;46263;44.726;10.396;2022-11-20T09:10:24;100134.81;;;12.02;68.05
60417;BME280;46263;44.726;10.396;2022-11-20T09:12:50;100135.66;;;12.23;68.14
60417;BME280;46263;44.726;10.396;2022-11-20T09:15:17;100130.81;;;12.24;67.91
60417;BME280;46263;44.726;10.396;2022-11-20T09:17:52;100138.03;;;12.32;68.24
60417;BME280;46263;44.726;10.396;2022-11-20T09:20:18;100149.88;;;12.38;68.22
60417;BME280;46263;44.726;10.396;2022-11-20T09:22:44;100150.41;;;12.50;67.79
60417;BME280;46263;44.726;10.396;2022-11-20T09:25:10;100150.63;;;12.52;68.09
60417;BME280;46263;44.726;10.396;2022-11-20T09:27:35;100144.34;;;12.72;67.56
60417;BME280;46263;44.726;10.396;2022-11-20T09:30:01;100148.84;;;12.74;67.61
60417;BME280;46263;44.726;10.396;2022-11-20T09:32:27;100147.84;;;12.85;67.73
60417;BME280;46263;44.726;10.396;2022-11-20T09:34:52;100143.75;;;12.86;67.37
60417;BME280;46263;44.726;10.396;2022-11-20T09:37:18;100151.31;;;12.91;67.22
60417;BME280;46263;44.726;10.396;2022-11-20T09:39:43;100153.34;;;12.90;67.47
60417;BME280;46263;44.726;10.396;2022-11-20T09:53:16;100150.06;;;13.12;67.46
60417;BME280;46263;44.726;10.396;2022-11-20T09:55:46;100141.31;;;13.36;66.99
60417;BME280;46263;44.726;10.396;2022-11-20T09:58:20;100143.59;;;13.25;67.25
60417;BME280;46263;44.726;10.396;2022-11-20T10:00:51;100141.97;;;13.29;68.02
60417;BME280;46263;44.726;10.396;2022-11-20T10:03:24;100140.66;;;13.51;66.89
60417;BME280;46263;44.726;10.396;2022-11-20T10:05:59;100142.66;;;13.63;66.37
60417;BME280;46263;44.726;10.396;2022-11-20T10:08:38;100146.00;;;13.82;66.43
60417;BME280;46263;44.726;10.396;2022-11-20T10:11:18;100149.44;;;13.67;66.25
60417;BME280;46263;44.726;10.396;2022-11-20T10:16:46;100141.09;;;13.54;68.21
60417;BME280;46263;44.726;10.396;2022-11-20T10:28:09;100134.50;;;14.00;65.67
60417;BME280;46263;44.726;10.396;2022-11-20T10:30:43;100132.28;;;13.78;66.88
60417;BME280;46263;44.726;10.396;2022-11-20T10:33:22;100126.47;;;13.76;66.73
60417;BME280;46263;44.726;10.396;2022-11-20T10:36:04;100125.06;;;13.90;67.25
60417;BME280;46263;44.726;10.396;2022-11-20T10:38:40;100129.81;;;13.95;67.25
60417;BME280;46263;44.726;10.396;2022-11-20T10:41:16;100125.78;;;13.83;66.30
60417;BME280;46263;44.726;10.396;2022-11-20T10:44:04;100125.34;;;14.00;67.05
60417;BME280;46263;44.726;10.396;2022-11-20T10:46:40;100110.47;;;14.20;66.78
60417;BME280;46263;44.726;10.396;2022-11-20T10:49:16;100113.13;;;14.25;66.83
60417;BME280;46263;44.726;10.396;2022-11-20T10:51:58;100112.47;;;14.39;65.94
60417;BME280;46263;44.726;10.396;2022-11-20T10:54:39;100104.44;;;14.51;66.66
60417;BME280;46263;44.726;10.396;2022-11-20T10:57:40;100099.81;;;14.26;66.02
60417;BME280;46263;44.726;10.396;2022-11-20T11:00:13;100102.16;;;14.42;65.86
60417;BME280;46263;44.726;10.396;2022-11-20T11:02:43;100092.66;;;14.60;66.05
60417;BME280;46263;44.726;10.396;2022-11-20T11:05:50;100100.03;;;14.70;65.64
60417;BME280;46263;44.726;10.396;2022-11-20T11:08:18;100089.75;;;14.88;65.62
60417;BME280;46263;44.726;10.396;2022-11-20T11:10:57;100095.00;;;14.91;64.76
60417;BME280;46263;44.726;10.396;2022-11-20T11:13:26;100086.59;;;14.99;64.66
60417;BME280;46263;44.726;10.396;2022-11-20T11:15:53;100089.75;;;15.03;64.70
60417;BME280;46263;44.726;10.396;2022-11-20T11:18:27;100082.81;;;14.89;64.18
60417;BME280;46263;44.726;10.396;2022-11-20T11:20:54;100091.38;;;14.61;65.46
60417;BME280;46263;44.726;10.396;2022-11-20T11:25:59;100078.94;;;14.49;66.35
60417;BME280;46263;44.726;10.396;2022-11-20T11:28:26;100071.59;;;14.38;66.73
60417;BME280;46263;44.726;10.396;2022-11-20T11:30:53;100077.06;;;14.44;65.99
60417;BME280;46263;44.726;10.396;2022-11-20T11:33:21;100075.75;;;14.45;66.09
60417;BME280;46263;44.726;10.396;2022-11-20T11:35:58;100073.31;;;14.49;65.74
60417;BME280;46263;44.726;10.396;2022-11-20T11:38:34;100083.66;;;14.61;65.47
60417;BME280;46263;44.726;10.396;2022-11-20T11:41:01;100068.88;;;14.61;64.90
60417;BME280;46263;44.726;10.396;2022-11-20T11:43:32;100076.16;;;14.64;65.28
60417;BME280;46263;44.726;10.396;2022-11-20T11:49:08;100072.69;;;14.93;63.64
60417;BME280;46263;44.726;10.396;2022-11-20T11:56:52;100058.66;;;15.15;63.31
60417;BME280;46263;44.726;10.396;2022-11-20T11:59:27;100060.50;;;14.91;63.28
60417;BME280;46263;44.726;10.396;2022-11-20T12:02:02;100055.63;;;14.99;64.62
60417;BME280;46263;44.726;10.396;2022-11-20T12:07:10;100061.06;;;15.04;65.55
60417;BME280;46263;44.726;10.396;2022-11-20T12:09:43;100052.47;;;15.24;64.91
60417;BME280;46263;44.726;10.396;2022-11-20T12:12:18;100050.97;;;15.23;65.29
60417;BME280;46263;44.726;10.396;2022-11-20T12:14:47;100060.50;;;15.20;65.04
60417;BME280;46263;44.726;10.396;2022-11-20T12:17:15;100049.25;;;15.06;65.17
60417;BME280;46263;44.726;10.396;2022-11-20T12:19:41;100044.38;;;14.99;65.50
60417;BME280;46263;44.726;10.396;2022-11-20T12:30:24;100041.75;;;15.45;63.83
60417;BME280;46263;44.726;10.396;2022-11-20T12:41:48;100042.16;;;15.49;63.70
60417;BME280;46263;44.726;10.396;2022-11-20T12:47:59;100029.16;;;15.61;63.32
60417;BME280;46263;44.726;10.396;2022-11-20T13:01:40;100018.81;;;15.71;62.20
60417;BME280;46263;44.726;10.396;2022-11-20T13:06:58;100017.47;;;15.87;63.07
60417;BME280;46263;44.726;10.396;2022-11-20T13:09:24;100015.44;;;15.73;62.02
60417;BME280;46263;44.726;10.396;2022-11-20T13:12:02;100003.03;;;15.76;62.54
60417;BME280;46263;44.726;10.396;2022-11-20T13:14:55;100000.75;;;15.82;62.88
60417;BME280;46263;44.726;10.396;2022-11-20T13:17:50;99998.13;;;15.91;62.49
60417;BME280;46263;44.726;10.396;2022-11-20T13:20:18;99999.59;;;15.92;62.25
60417;BME280;46263;44.726;10.396;2022-11-20T13:22:52;99999.06;;;15.86;62.45
60417;BME280;46263;44.726;10.396;2022-11-20T13:25:25;99993.41;;;15.86;62.59
60417;BME280;46263;44.726;10.396;2022-11-20T13:27:51;99994.00;;;15.85;62.58
60417;BME280;46263;44.726;10.396;2022-11-20T13:30:19;99991.94;;;15.78;63.41
60417;BME280;46263;44.726;10.396;2022-11-20T13:33:09;99990.63;;;15.79;63.68
60417;BME280;46263;44.726;10.396;2022-11-20T13:36:21;99993.66;;;15.73;63.48
60417;BME280;46263;44.726;10.396;2022-11-20T13:38:49;99985.06;;;15.56;62.70
60417;BME280;46263;44.726;10.396;2022-11-20T13:41:35;99982.44;;;15.51;62.94
60417;BME280;46263;44.726;10.396;2022-11-20T13:46:43;99980.88;;;15.65;63.40
60417;BME280;46263;44.726;10.396;2022-11-20T13:49:17;99994.22;;;15.64;63.38
60417;BME280;46263;44.726;10.396;2022-11-20T13:51:46;99988.03;;;15.66;63.33
60417;BME280;46263;44.726;10.396;2022-11-20T14:00:23;99985.59;;;15.62;62.67
60417;BME280;46263;44.726;10.396;2022-11-20T14:03:09;99988.41;;;15.62;63.21
60417;BME280;46263;44.726;10.396;2022-11-20T14:05:40;99987.72;;;15.39;62.43
60417;BME280;46263;44.726;10.396;2022-11-20T14:08:21;99995.19;;;15.44;63.09
60417;BME280;46263;44.726;10.396;2022-11-20T14:10:48;99976.06;;;15.50;63.13
60417;BME280;46263;44.726;10.396;2022-11-20T14:13:19;99982.44;;;15.51;63.49
60417;BME280;46263;44.726;10.396;2022-11-20T14:15:44;99973.78;;;15.56;62.75
60417;BME280;46263;44.726;10.396;2022-11-20T14:18:28;99969.47;;;15.55;62.73